Terminal Aerodrome Forecast
Issued by NWS Binghamton, NY

Home | Current Version | Previous Version | Text Only | Print | Product List | Glossary On
Versions: 1 2 3 4 5 6 7 8 9 10 11 12 13 14 15 16 17 18 19 20 21 22 23 24
376
FTUS41 KBGM 101737
TAFAVP
TAF
KAVP 101737Z 1018/1118 27010G16KT P6SM BKN025 OVC040
      TEMPO 1018/1022 -SHSN
     FM110000 28006KT P6SM OVC035
     FM111000 28010G16KT P6SM OVC035=

USA.gov is the U.S. government's official web portal to all federal, state and local government web resources and services.